sensor_id;sensor_type;location;lat;lon;timestamp;temperature;humidity
37052;DHT22;22964;52.272;13.356;2023-05-10T00:01:24;15.50;46.90
37052;DHT22;22964;52.272;13.356;2023-05-10T00:03:49;15.50;46.80
37052;DHT22;22964;52.272;13.356;2023-05-10T00:06:15;15.40;47.10
37052;DHT22;22964;52.272;13.356;2023-05-10T00:08:41;15.40;47.50
37052;DHT22;22964;52.272;13.356;2023-05-10T00:11:07;15.40;47.40
37052;DHT22;22964;52.272;13.356;2023-05-10T00:13:32;15.30;47.40
37052;DHT22;22964;52.272;13.356;2023-05-10T00:15:58;15.30;47.70
37052;DHT22;22964;52.272;13.356;2023-05-10T00:18:24;15.20;47.50
37052;DHT22;22964;52.272;13.356;2023-05-10T00:20:50;15.20;48.00
37052;DHT22;22964;52.272;13.356;2023-05-10T00:23:15;15.10;47.80
37052;DHT22;22964;52.272;13.356;2023-05-10T00:25:41;15.10;48.00
37052;DHT22;22964;52.272;13.356;2023-05-10T00:28:07;15.00;48.20
37052;DHT22;22964;52.272;13.356;2023-05-10T00:30:32;15.00;48.10
37052;DHT22;22964;52.272;13.356;2023-05-10T00:32:58;15.00;48.30
37052;DHT22;22964;52.272;13.356;2023-05-10T00:35:25;14.90;48.50
37052;DHT22;22964;52.272;13.356;2023-05-10T00:37:51;14.90;48.60
37052;DHT22;22964;52.272;13.356;2023-05-10T00:40:17;14.80;48.60
37052;DHT22;22964;52.272;13.356;2023-05-10T00:42:48;14.80;48.80
37052;DHT22;22964;52.272;13.356;2023-05-10T00:45:14;14.70;48.80
37052;DHT22;22964;52.272;13.356;2023-05-10T00:47:40;14.70;49.20
37052;DHT22;22964;52.272;13.356;2023-05-10T00:50:06;14.70;49.20
37052;DHT22;22964;52.272;13.356;2023-05-10T00:52:32;14.60;49.50
37052;DHT22;22964;52.272;13.356;2023-05-10T00:54:58;14.60;49.20
37052;DHT22;22964;52.272;13.356;2023-05-10T00:57:24;14.60;49.40
37052;DHT22;22964;52.272;13.356;2023-05-10T00:59:50;14.60;49.50
37052;DHT22;22964;52.272;13.356;2023-05-10T01:02:16;14.60;49.80
37052;DHT22;22964;52.272;13.356;2023-05-10T01:04:43;14.50;49.80
37052;DHT22;22964;52.272;13.356;2023-05-10T01:07:09;14.50;49.60
37052;DHT22;22964;52.272;13.356;2023-05-10T01:09:34;14.50;49.60
37052;DHT22;22964;52.272;13.356;2023-05-10T01:12:01;14.60;49.70
37052;DHT22;22964;52.272;13.356;2023-05-10T01:14:29;14.60;49.70
37052;DHT22;22964;52.272;13.356;2023-05-10T01:16:55;14.60;49.60
37052;DHT22;22964;52.272;13.356;2023-05-10T01:19:28;14.60;49.40
37052;DHT22;22964;52.272;13.356;2023-05-10T01:33:51;14.50;50.00
37052;DHT22;22964;52.272;13.356;2023-05-10T01:36:23;14.50;49.80
37052;DHT22;22964;52.272;13.356;2023-05-10T01:39:01;14.50;49.40
37052;DHT22;22964;52.272;13.356;2023-05-10T01:44:20;14.50;49.90
37052;DHT22;22964;52.272;13.356;2023-05-10T01:46:56;14.40;49.90
37052;DHT22;22964;52.272;13.356;2023-05-10T01:49:26;14.50;49.60
37052;DHT22;22964;52.272;13.356;2023-05-10T01:51:59;14.50;49.80
37052;DHT22;22964;52.272;13.356;2023-05-10T01:54:27;14.40;50.10
37052;DHT22;22964;52.272;13.356;2023-05-10T01:57:03;14.40;49.80
37052;DHT22;22964;52.272;13.356;2023-05-10T01:59:34;14.40;49.90
37052;DHT22;22964;52.272;13.356;2023-05-10T02:02:07;14.40;50.20
37052;DHT22;22964;52.272;13.356;2023-05-10T02:04:38;14.40;49.80
37052;DHT22;22964;52.272;13.356;2023-05-10T02:07:05;14.40;50.00
37052;DHT22;22964;52.272;13.356;2023-05-10T02:09:33;14.30;49.90
37052;DHT22;22964;52.272;13.356;2023-05-10T02:12:02;14.30;49.90
37052;DHT22;22964;52.272;13.356;2023-05-10T02:14:33;14.30;49.90
37052;DHT22;22964;52.272;13.356;2023-05-10T02:17:02;14.30;50.10
37052;DHT22;22964;52.272;13.356;2023-05-10T02:19:30;14.30;49.80
37052;DHT22;22964;52.272;13.356;2023-05-10T02:21:57;14.30;49.60
37052;DHT22;22964;52.272;13.356;2023-05-10T02:24:25;14.30;49.90
37052;DHT22;22964;52.272;13.356;2023-05-10T02:26:53;14.30;49.80
37052;DHT22;22964;52.272;13.356;2023-05-10T02:29:22;14.30;49.90
37052;DHT22;22964;52.272;13.356;2023-05-10T02:31:51;14.20;50.10
37052;DHT22;22964;52.272;13.356;2023-05-10T02:34:18;14.20;50.10
37052;DHT22;22964;52.272;13.356;2023-05-10T02:36:45;14.20;50.10
37052;DHT22;22964;52.272;13.356;2023-05-10T02:39:11;14.10;50.40
37052;DHT22;22964;52.272;13.356;2023-05-10T02:41:40;14.20;50.70
37052;DHT22;22964;52.272;13.356;2023-05-10T02:44:08;14.10;50.50
37052;DHT22;22964;52.272;13.356;2023-05-10T02:46:35;14.10;50.40
37052;DHT22;22964;52.272;13.356;2023-05-10T02:49:01;14.10;51.00
37052;DHT22;22964;52.272;13.356;2023-05-10T02:51:30;14.10;50.70
37052;DHT22;22964;52.272;13.356;2023-05-10T02:53:57;14.10;51.60
37052;DHT22;22964;52.272;13.356;2023-05-10T02:56:33;14.00;50.70
37052;DHT22;22964;52.272;13.356;2023-05-10T02:58:59;14.00;51.00
37052;DHT22;22964;52.272;13.356;2023-05-10T03:01:25;13.90;51.30
37052;DHT22;22964;52.272;13.356;2023-05-10T03:03:51;13.90;51.10
37052;DHT22;22964;52.272;13.356;2023-05-10T03:06:17;13.90;50.80
37052;DHT22;22964;52.272;13.356;2023-05-10T03:08:43;13.90;51.00
37052;DHT22;22964;52.272;13.356;2023-05-10T03:16:45;13.90;51.50
37052;DHT22;22964;52.272;13.356;2023-05-10T03:19:57;13.90;51.30
37052;DHT22;22964;52.272;13.356;2023-05-10T03:22:32;13.80;51.60
37052;DHT22;22964;52.272;13.356;2023-05-10T03:25:00;13.80;51.50
37052;DHT22;22964;52.272;13.356;2023-05-10T03:27:30;13.80;51.50
37052;DHT22;22964;52.272;13.356;2023-05-10T03:29:57;13.80;51.70
37052;DHT22;22964;52.272;13.356;2023-05-10T03:32:23;13.80;51.50
37052;DHT22;22964;52.272;13.356;2023-05-10T03:34:49;13.70;51.40
37052;DHT22;22964;52.272;13.356;2023-05-10T03:37:15;13.70;51.90
37052;DHT22;22964;52.272;13.356;2023-05-10T03:39:41;13.70;51.70
37052;DHT22;22964;52.272;13.356;2023-05-10T03:42:08;13.70;51.80
37052;DHT22;22964;52.272;13.356;2023-05-10T03:44:40;13.70;51.60
37052;DHT22;22964;52.272;13.356;2023-05-10T03:47:07;13.70;51.80
37052;DHT22;22964;52.272;13.356;2023-05-10T03:49:33;13.70;51.70
37052;DHT22;22964;52.272;13.356;2023-05-10T03:51:59;13.70;51.90
37052;DHT22;22964;52.272;13.356;2023-05-10T03:54:25;13.70;52.00
37052;DHT22;22964;52.272;13.356;2023-05-10T03:56:51;13.70;52.30
37052;DHT22;22964;52.272;13.356;2023-05-10T03:59:20;13.70;52.50
37052;DHT22;22964;52.272;13.356;2023-05-10T04:01:46;13.70;52.60
37052;DHT22;22964;52.272;13.356;2023-05-10T04:04:11;13.70;52.20
37052;DHT22;22964;52.272;13.356;2023-05-10T04:06:38;13.70;51.70
37052;DHT22;22964;52.272;13.356;2023-05-10T04:09:03;13.70;51.60
37052;DHT22;22964;52.272;13.356;2023-05-10T04:11:29;13.80;51.60
37052;DHT22;22964;52.272;13.356;2023-05-10T04:13:55;13.90;51.80
37052;DHT22;22964;52.272;13.356;2023-05-10T04:16:21;13.90;51.50
37052;DHT22;22964;52.272;13.356;2023-05-10T04:18:46;13.90;51.50
37052;DHT22;22964;52.272;13.356;2023-05-10T04:21:12;14.00;51.60
37052;DHT22;22964;52.272;13.356;2023-05-10T04:23:39;14.00;51.40
37052;DHT22;22964;52.272;13.356;2023-05-10T04:26:04;14.10;51.30
37052;DHT22;22964;52.272;13.356;2023-05-10T04:28:30;14.10;51.30
37052;DHT22;22964;52.272;13.356;2023-05-10T04:33:28;14.20;51.30
37052;DHT22;22964;52.272;13.356;2023-05-10T04:35:54;14.30;51.10
37052;DHT22;22964;52.272;13.356;2023-05-10T04:38:19;14.40;51.20
37052;DHT22;22964;52.272;13.356;2023-05-10T04:40:45;14.40;51.30
37052;DHT22;22964;52.272;13.356;2023-05-10T04:43:11;14.50;52.20
37052;DHT22;22964;52.272;13.356;2023-05-10T04:45:36;14.50;52.20
37052;DHT22;22964;52.272;13.356;2023-05-10T04:48:02;14.50;52.00
37052;DHT22;22964;52.272;13.356;2023-05-10T04:50:28;14.60;52.20
37052;DHT22;22964;52.272;13.356;2023-05-10T04:52:53;14.60;52.40
37052;DHT22;22964;52.272;13.356;2023-05-10T04:55:19;14.70;52.30
37052;DHT22;22964;52.272;13.356;2023-05-10T04:57:45;14.70;52.20
37052;DHT22;22964;52.272;13.356;2023-05-10T05:00:11;14.80;52.10
37052;DHT22;22964;52.272;13.356;2023-05-10T05:02:37;14.80;52.30
37052;DHT22;22964;52.272;13.356;2023-05-10T05:05:03;14.90;51.90
37052;DHT22;22964;52.272;13.356;2023-05-10T05:07:29;15.00;52.20
37052;DHT22;22964;52.272;13.356;2023-05-10T05:09:56;15.10;52.10
37052;DHT22;22964;52.272;13.356;2023-05-10T05:12:21;15.20;52.00
37052;DHT22;22964;52.272;13.356;2023-05-10T05:14:47;15.30;52.00
37052;DHT22;22964;52.272;13.356;2023-05-10T05:17:13;15.40;51.70
37052;DHT22;22964;52.272;13.356;2023-05-10T05:19:38;15.50;51.70
37052;DHT22;22964;52.272;13.356;2023-05-10T05:22:06;15.60;51.20
37052;DHT22;22964;52.272;13.356;2023-05-10T05:24:36;15.70;51.40
37052;DHT22;22964;52.272;13.356;2023-05-10T05:27:05;15.80;51.20
37052;DHT22;22964;52.272;13.356;2023-05-10T05:29:31;15.90;51.00
37052;DHT22;22964;52.272;13.356;2023-05-10T05:31:57;16.10;50.90
37052;DHT22;22964;52.272;13.356;2023-05-10T05:34:23;16.20;50.60
37052;DHT22;22964;52.272;13.356;2023-05-10T05:36:50;16.30;50.50
37052;DHT22;22964;52.272;13.356;2023-05-10T05:39:16;16.40;50.20
37052;DHT22;22964;52.272;13.356;2023-05-10T05:41:42;16.50;50.10
37052;DHT22;22964;52.272;13.356;2023-05-10T05:44:07;16.60;49.90
37052;DHT22;22964;52.272;13.356;2023-05-10T05:46:33;16.70;49.70
37052;DHT22;22964;52.272;13.356;2023-05-10T05:48:59;16.90;49.70
37052;DHT22;22964;52.272;13.356;2023-05-10T05:51:25;16.90;49.30
37052;DHT22;22964;52.272;13.356;2023-05-10T05:53:50;17.10;49.20
37052;DHT22;22964;52.272;13.356;2023-05-10T05:56:16;17.20;49.20
37052;DHT22;22964;52.272;13.356;2023-05-10T05:58:50;17.30;49.20
37052;DHT22;22964;52.272;13.356;2023-05-10T06:01:16;17.40;49.20
37052;DHT22;22964;52.272;13.356;2023-05-10T06:03:42;17.50;49.10
37052;DHT22;22964;52.272;13.356;2023-05-10T06:06:07;17.60;49.00
37052;DHT22;22964;52.272;13.356;2023-05-10T06:08:33;17.70;49.00
37052;DHT22;22964;52.272;13.356;2023-05-10T06:11:00;17.80;48.80
37052;DHT22;22964;52.272;13.356;2023-05-10T06:13:26;17.90;48.80
37052;DHT22;22964;52.272;13.356;2023-05-10T06:15:58;18.10;48.70
37052;DHT22;22964;52.272;13.356;2023-05-10T06:18:24;18.20;48.30
37052;DHT22;22964;52.272;13.356;2023-05-10T06:20:50;18.30;48.00
37052;DHT22;22964;52.272;13.356;2023-05-10T06:23:16;18.40;47.20
37052;DHT22;22964;52.272;13.356;2023-05-10T06:25:41;18.50;47.30
37052;DHT22;22964;52.272;13.356;2023-05-10T06:28:07;18.60;47.30
37052;DHT22;22964;52.272;13.356;2023-05-10T06:30:33;18.70;47.50
37052;DHT22;22964;52.272;13.356;2023-05-10T06:32:59;18.80;47.70
37052;DHT22;22964;52.272;13.356;2023-05-10T06:35:24;18.90;47.70
37052;DHT22;22964;52.272;13.356;2023-05-10T06:37:50;19.10;47.30
37052;DHT22;22964;52.272;13.356;2023-05-10T06:40:17;19.20;46.70
37052;DHT22;22964;52.272;13.356;2023-05-10T06:42:42;19.30;46.30
37052;DHT22;22964;52.272;13.356;2023-05-10T06:45:10;19.40;45.90
37052;DHT22;22964;52.272;13.356;2023-05-10T06:47:36;19.50;45.90
37052;DHT22;22964;52.272;13.356;2023-05-10T06:50:02;19.60;45.30
37052;DHT22;22964;52.272;13.356;2023-05-10T06:52:28;19.60;45.20
37052;DHT22;22964;52.272;13.356;2023-05-10T06:54:54;19.70;45.50
37052;DHT22;22964;52.272;13.356;2023-05-10T06:57:20;19.70;45.10
37052;DHT22;22964;52.272;13.356;2023-05-10T06:59:46;19.80;45.10
37052;DHT22;22964;52.272;13.356;2023-05-10T07:02:11;19.90;45.20
37052;DHT22;22964;52.272;13.356;2023-05-10T07:04:37;20.00;45.50
37052;DHT22;22964;52.272;13.356;2023-05-10T07:07:03;20.10;45.30
37052;DHT22;22964;52.272;13.356;2023-05-10T07:09:29;20.20;45.20
37052;DHT22;22964;52.272;13.356;2023-05-10T07:11:55;20.30;44.40
37052;DHT22;22964;52.272;13.356;2023-05-10T07:14:22;20.40;44.40
37052;DHT22;22964;52.272;13.356;2023-05-10T07:16:48;20.50;43.90
37052;DHT22;22964;52.272;13.356;2023-05-10T07:19:14;20.60;43.50
37052;DHT22;22964;52.272;13.356;2023-05-10T07:21:40;20.70;43.70
37052;DHT22;22964;52.272;13.356;2023-05-10T07:24:08;20.80;43.90
37052;DHT22;22964;52.272;13.356;2023-05-10T07:26:34;20.80;43.70
37052;DHT22;22964;52.272;13.356;2023-05-10T07:29:00;20.90;43.50
37052;DHT22;22964;52.272;13.356;2023-05-10T07:31:26;21.00;43.30
37052;DHT22;22964;52.272;13.356;2023-05-10T07:33:52;21.10;43.10
37052;DHT22;22964;52.272;13.356;2023-05-10T07:36:18;21.20;43.10
37052;DHT22;22964;52.272;13.356;2023-05-10T07:38:44;21.30;43.20
37052;DHT22;22964;52.272;13.356;2023-05-10T07:41:11;21.40;43.20
37052;DHT22;22964;52.272;13.356;2023-05-10T07:43:37;21.50;43.50
37052;DHT22;22964;52.272;13.356;2023-05-10T07:46:03;21.60;43.40
37052;DHT22;22964;52.272;13.356;2023-05-10T07:48:29;21.70;43.40
37052;DHT22;22964;52.272;13.356;2023-05-10T07:50:55;21.80;43.30
37052;DHT22;22964;52.272;13.356;2023-05-10T07:53:20;21.90;42.70
37052;DHT22;22964;52.272;13.356;2023-05-10T07:55:58;22.00;43.40
37052;DHT22;22964;52.272;13.356;2023-05-10T07:58:24;22.10;41.90
37052;DHT22;22964;52.272;13.356;2023-05-10T08:00:50;22.20;43.00
37052;DHT22;22964;52.272;13.356;2023-05-10T08:03:16;22.40;42.60
37052;DHT22;22964;52.272;13.356;2023-05-10T08:05:42;22.50;42.20
37052;DHT22;22964;52.272;13.356;2023-05-10T08:08:07;22.60;41.50
37052;DHT22;22964;52.272;13.356;2023-05-10T08:10:33;22.70;41.20
37052;DHT22;22964;52.272;13.356;2023-05-10T08:12:59;22.80;41.60
37052;DHT22;22964;52.272;13.356;2023-05-10T08:15:25;22.80;41.70
37052;DHT22;22964;52.272;13.356;2023-05-10T08:17:53;22.90;41.40
37052;DHT22;22964;52.272;13.356;2023-05-10T08:20:20;23.00;42.10
37052;DHT22;22964;52.272;13.356;2023-05-10T08:22:46;23.10;41.70
37052;DHT22;22964;52.272;13.356;2023-05-10T08:25:11;23.20;41.00
37052;DHT22;22964;52.272;13.356;2023-05-10T08:27:37;23.30;41.40
37052;DHT22;22964;52.272;13.356;2023-05-10T08:30:03;23.40;41.30
37052;DHT22;22964;52.272;13.356;2023-05-10T08:32:29;23.60;40.80
37052;DHT22;22964;52.272;13.356;2023-05-10T08:34:55;23.60;40.70
37052;DHT22;22964;52.272;13.356;2023-05-10T08:37:23;23.80;40.50
37052;DHT22;22964;52.272;13.356;2023-05-10T08:39:48;23.90;40.20
37052;DHT22;22964;52.272;13.356;2023-05-10T08:42:19;24.00;40.30
37052;DHT22;22964;52.272;13.356;2023-05-10T08:44:47;24.10;40.10
37052;DHT22;22964;52.272;13.356;2023-05-10T08:47:15;24.10;40.00
37052;DHT22;22964;52.272;13.356;2023-05-10T08:49:41;24.20;40.40
37052;DHT22;22964;52.272;13.356;2023-05-10T08:52:11;24.30;39.80
37052;DHT22;22964;52.272;13.356;2023-05-10T08:54:38;24.30;40.10
37052;DHT22;22964;52.272;13.356;2023-05-10T08:57:04;24.30;39.70
37052;DHT22;22964;52.272;13.356;2023-05-10T08:59:30;24.30;39.50
37052;DHT22;22964;52.272;13.356;2023-05-10T09:01:58;24.30;39.70
37052;DHT22;22964;52.272;13.356;2023-05-10T09:04:24;24.30;39.80
37052;DHT22;22964;52.272;13.356;2023-05-10T09:06:50;24.40;40.30
37052;DHT22;22964;52.272;13.356;2023-05-10T09:09:17;24.50;40.10
37052;DHT22;22964;52.272;13.356;2023-05-10T09:11:43;24.60;40.90
37052;DHT22;22964;52.272;13.356;2023-05-10T09:14:10;24.70;39.50
37052;DHT22;22964;52.272;13.356;2023-05-10T09:16:36;24.80;39.50
37052;DHT22;22964;52.272;13.356;2023-05-10T09:19:02;24.80;39.30
37052;DHT22;22964;52.272;13.356;2023-05-10T09:21:28;24.90;39.10
37052;DHT22;22964;52.272;13.356;2023-05-10T09:23:53;25.00;39.10
37052;DHT22;22964;52.272;13.356;2023-05-10T09:26:23;25.10;38.90
37052;DHT22;22964;52.272;13.356;2023-05-10T09:31:16;25.50;38.20
37052;DHT22;22964;52.272;13.356;2023-05-10T09:33:45;25.60;38.60
37052;DHT22;22964;52.272;13.356;2023-05-10T09:36:12;25.80;37.80
37052;DHT22;22964;52.272;13.356;2023-05-10T09:39:04;25.90;37.90
37052;DHT22;22964;52.272;13.356;2023-05-10T09:41:30;26.10;36.90
37052;DHT22;22964;52.272;13.356;2023-05-10T09:43:56;26.20;37.70
37052;DHT22;22964;52.272;13.356;2023-05-10T09:46:22;26.40;37.70
37052;DHT22;22964;52.272;13.356;2023-05-10T09:48:48;26.40;37.50
37052;DHT22;22964;52.272;13.356;2023-05-10T09:51:25;26.50;37.10
37052;DHT22;22964;52.272;13.356;2023-05-10T09:54:13;26.70;36.60
37052;DHT22;22964;52.272;13.356;2023-05-10T09:56:40;26.70;36.60
37052;DHT22;22964;52.272;13.356;2023-05-10T09:59:09;26.80;36.60
37052;DHT22;22964;52.272;13.356;2023-05-10T10:01:35;26.90;35.90
37052;DHT22;22964;52.272;13.356;2023-05-10T10:04:08;27.00;35.60
37052;DHT22;22964;52.272;13.356;2023-05-10T10:06:38;27.00;34.70
37052;DHT22;22964;52.272;13.356;2023-05-10T10:09:08;27.00;35.20
37052;DHT22;22964;52.272;13.356;2023-05-10T10:11:35;27.10;35.60
37052;DHT22;22964;52.272;13.356;2023-05-10T10:14:01;27.10;35.50
37052;DHT22;22964;52.272;13.356;2023-05-10T10:16:29;27.20;35.70
37052;DHT22;22964;52.272;13.356;2023-05-10T10:18:56;27.30;35.80
37052;DHT22;22964;52.272;13.356;2023-05-10T10:21:22;27.40;35.20
37052;DHT22;22964;52.272;13.356;2023-05-10T10:23:48;27.40;35.10
37052;DHT22;22964;52.272;13.356;2023-05-10T10:26:15;27.50;35.20
37052;DHT22;22964;52.272;13.356;2023-05-10T10:31:41;27.60;35.10
37052;DHT22;22964;52.272;13.356;2023-05-10T10:34:26;27.70;34.90
37052;DHT22;22964;52.272;13.356;2023-05-10T10:36:55;27.80;34.60
37052;DHT22;22964;52.272;13.356;2023-05-10T10:39:22;27.80;34.60
37052;DHT22;22964;52.272;13.356;2023-05-10T10:41:53;27.90;34.80
37052;DHT22;22964;52.272;13.356;2023-05-10T10:49:26;28.00;33.90
37052;DHT22;22964;52.272;13.356;2023-05-10T10:55:18;28.20;32.90
37052;DHT22;22964;52.272;13.356;2023-05-10T10:57:53;28.20;33.60
37052;DHT22;22964;52.272;13.356;2023-05-10T11:00:33;28.30;33.00
37052;DHT22;22964;52.272;13.356;2023-05-10T11:03:10;28.30;33.40
37052;DHT22;22964;52.272;13.356;2023-05-10T11:05:42;28.40;33.60
37052;DHT22;22964;52.272;13.356;2023-05-10T11:08:30;28.50;33.70
37052;DHT22;22964;52.272;13.356;2023-05-10T11:13:45;28.70;33.70
37052;DHT22;22964;52.272;13.356;2023-05-10T11:16:16;28.80;32.50
37052;DHT22;22964;52.272;13.356;2023-05-10T11:21:25;29.00;31.20
37052;DHT22;22964;52.272;13.356;2023-05-10T11:23:52;29.10;32.50
37052;DHT22;22964;52.272;13.356;2023-05-10T11:26:22;29.10;31.80
37052;DHT22;22964;52.272;13.356;2023-05-10T11:28:52;29.10;31.70
37052;DHT22;22964;52.272;13.356;2023-05-10T11:31:21;29.20;31.80
37052;DHT22;22964;52.272;13.356;2023-05-10T11:33:51;29.30;31.50
37052;DHT22;22964;52.272;13.356;2023-05-10T11:36:19;29.40;31.40
37052;DHT22;22964;52.272;13.356;2023-05-10T11:38:46;29.50;31.30
37052;DHT22;22964;52.272;13.356;2023-05-10T11:41:13;29.50;32.30
37052;DHT22;22964;52.272;13.356;2023-05-10T11:43:39;29.70;30.90
37052;DHT22;22964;52.272;13.356;2023-05-10T11:46:06;29.70;30.40
37052;DHT22;22964;52.272;13.356;2023-05-10T11:48:32;29.70;31.20
37052;DHT22;22964;52.272;13.356;2023-05-10T11:50:58;29.70;30.00
37052;DHT22;22964;52.272;13.356;2023-05-10T11:53:31;29.80;30.10
37052;DHT22;22964;52.272;13.356;2023-05-10T11:56:09;29.70;29.60
37052;DHT22;22964;52.272;13.356;2023-05-10T11:58:37;29.70;29.40
37052;DHT22;22964;52.272;13.356;2023-05-10T12:01:04;29.70;30.20
37052;DHT22;22964;52.272;13.356;2023-05-10T12:03:30;29.80;30.50
37052;DHT22;22964;52.272;13.356;2023-05-10T12:05:57;29.80;30.40
37052;DHT22;22964;52.272;13.356;2023-05-10T12:08:25;29.90;30.10
37052;DHT22;22964;52.272;13.356;2023-05-10T12:10:51;30.00;30.20
37052;DHT22;22964;52.272;13.356;2023-05-10T12:13:19;30.00;30.50
37052;DHT22;22964;52.272;13.356;2023-05-10T12:15:46;30.10;29.90
37052;DHT22;22964;52.272;13.356;2023-05-10T12:18:15;30.10;30.00
37052;DHT22;22964;52.272;13.356;2023-05-10T12:20:48;30.20;29.60
37052;DHT22;22964;52.272;13.356;2023-05-10T12:23:14;30.30;29.60
37052;DHT22;22964;52.272;13.356;2023-05-10T12:25:40;30.40;29.80
37052;DHT22;22964;52.272;13.356;2023-05-10T12:28:07;30.50;29.20
37052;DHT22;22964;52.272;13.356;2023-05-10T12:30:35;30.50;29.00
37052;DHT22;22964;52.272;13.356;2023-05-10T12:33:12;30.60;29.20
37052;DHT22;22964;52.272;13.356;2023-05-10T12:36:04;30.60;29.10
37052;DHT22;22964;52.272;13.356;2023-05-10T12:38:35;30.70;29.60
37052;DHT22;22964;52.272;13.356;2023-05-10T12:41:05;30.80;29.30
37052;DHT22;22964;52.272;13.356;2023-05-10T12:43:32;30.80;29.50
37052;DHT22;22964;52.272;13.356;2023-05-10T12:45:58;30.80;30.00
37052;DHT22;22964;52.272;13.356;2023-05-10T12:48:24;30.90;29.30
37052;DHT22;22964;52.272;13.356;2023-05-10T12:50:50;30.90;29.30
37052;DHT22;22964;52.272;13.356;2023-05-10T12:53:16;30.90;29.20
37052;DHT22;22964;52.272;13.356;2023-05-10T12:55:43;30.90;28.40
37052;DHT22;22964;52.272;13.356;2023-05-10T12:58:09;30.90;28.60
37052;DHT22;22964;52.272;13.356;2023-05-10T13:00:35;30.90;28.50
37052;DHT22;22964;52.272;13.356;2023-05-10T13:03:04;30.90;28.30
37052;DHT22;22964;52.272;13.356;2023-05-10T13:05:33;30.90;29.10
37052;DHT22;22964;52.272;13.356;2023-05-10T13:07:59;30.90;29.00
37052;DHT22;22964;52.272;13.356;2023-05-10T13:10:25;31.00;28.90
37052;DHT22;22964;52.272;13.356;2023-05-10T13:12:51;31.00;28.90
37052;DHT22;22964;52.272;13.356;2023-05-10T13:15:17;31.10;28.90
37052;DHT22;22964;52.272;13.356;2023-05-10T13:17:42;31.20;28.80
37052;DHT22;22964;52.272;13.356;2023-05-10T13:20:09;31.20;28.60
37052;DHT22;22964;52.272;13.356;2023-05-10T13:22:35;31.30;28.00
37052;DHT22;22964;52.272;13.356;2023-05-10T13:25:02;31.30;28.10
37052;DHT22;22964;52.272;13.356;2023-05-10T13:27:28;31.30;28.10
37052;DHT22;22964;52.272;13.356;2023-05-10T13:29:54;31.30;27.90
37052;DHT22;22964;52.272;13.356;2023-05-10T13:32:20;31.20;27.70
37052;DHT22;22964;52.272;13.356;2023-05-10T13:34:46;31.20;28.20
37052;DHT22;22964;52.272;13.356;2023-05-10T13:37:12;31.10;27.80
37052;DHT22;22964;52.272;13.356;2023-05-10T13:39:38;31.10;27.70
37052;DHT22;22964;52.272;13.356;2023-05-10T13:42:04;31.10;27.70
37052;DHT22;22964;52.272;13.356;2023-05-10T13:44:30;31.10;27.80
37052;DHT22;22964;52.272;13.356;2023-05-10T13:46:56;31.20;27.90
37052;DHT22;22964;52.272;13.356;2023-05-10T13:49:22;31.20;27.60
37052;DHT22;22964;52.272;13.356;2023-05-10T13:51:48;31.20;28.00
37052;DHT22;22964;52.272;13.356;2023-05-10T13:54:14;31.30;27.40
37052;DHT22;22964;52.272;13.356;2023-05-10T13:56:41;31.30;27.40
37052;DHT22;22964;52.272;13.356;2023-05-10T13:59:07;31.30;27.10
37052;DHT22;22964;52.272;13.356;2023-05-10T14:01:33;31.20;27.30
37052;DHT22;22964;52.272;13.356;2023-05-10T14:03:59;31.20;27.40
37052;DHT22;22964;52.272;13.356;2023-05-10T14:06:25;31.20;27.30
37052;DHT22;22964;52.272;13.356;2023-05-10T14:08:53;31.20;27.70
37052;DHT22;22964;52.272;13.356;2023-05-10T14:11:19;31.20;27.20
37052;DHT22;22964;52.272;13.356;2023-05-10T14:13:45;31.10;27.50
37052;DHT22;22964;52.272;13.356;2023-05-10T14:16:11;31.10;27.60
37052;DHT22;22964;52.272;13.356;2023-05-10T14:18:37;31.10;27.60
37052;DHT22;22964;52.272;13.356;2023-05-10T14:21:03;31.10;27.30
37052;DHT22;22964;52.272;13.356;2023-05-10T14:23:29;31.00;27.40
37052;DHT22;22964;52.272;13.356;2023-05-10T14:25:55;31.00;27.40
37052;DHT22;22964;52.272;13.356;2023-05-10T14:28:21;30.80;27.10
37052;DHT22;22964;52.272;13.356;2023-05-10T14:30:49;30.70;26.80
37052;DHT22;22964;52.272;13.356;2023-05-10T14:33:16;30.50;27.30
37052;DHT22;22964;52.272;13.356;2023-05-10T14:35:41;30.30;27.60
37052;DHT22;22964;52.272;13.356;2023-05-10T14:38:07;30.20;27.60
37052;DHT22;22964;52.272;13.356;2023-05-10T14:40:33;30.00;27.70
37052;DHT22;22964;52.272;13.356;2023-05-10T14:42:58;29.90;27.60
37052;DHT22;22964;52.272;13.356;2023-05-10T14:45:24;29.80;27.70
37052;DHT22;22964;52.272;13.356;2023-05-10T14:47:50;29.70;27.80
37052;DHT22;22964;52.272;13.356;2023-05-10T14:50:16;29.60;28.00
37052;DHT22;22964;52.272;13.356;2023-05-10T14:52:44;29.50;28.00
37052;DHT22;22964;52.272;13.356;2023-05-10T14:55:10;29.40;28.10
37052;DHT22;22964;52.272;13.356;2023-05-10T14:57:36;29.40;28.20
37052;DHT22;22964;52.272;13.356;2023-05-10T15:00:03;29.30;28.20
37052;DHT22;22964;52.272;13.356;2023-05-10T15:02:30;29.30;28.00
37052;DHT22;22964;52.272;13.356;2023-05-10T15:04:56;29.20;28.10
37052;DHT22;22964;52.272;13.356;2023-05-10T15:07:23;29.10;28.20
37052;DHT22;22964;52.272;13.356;2023-05-10T15:09:50;29.10;28.60
37052;DHT22;22964;52.272;13.356;2023-05-10T15:12:17;29.00;28.40
37052;DHT22;22964;52.272;13.356;2023-05-10T15:14:43;29.00;28.60
37052;DHT22;22964;52.272;13.356;2023-05-10T15:17:08;29.00;28.70
37052;DHT22;22964;52.272;13.356;2023-05-10T15:19:34;28.90;28.90
37052;DHT22;22964;52.272;13.356;2023-05-10T15:22:00;29.00;29.00
37052;DHT22;22964;52.272;13.356;2023-05-10T15:24:25;29.00;29.10
37052;DHT22;22964;52.272;13.356;2023-05-10T15:26:51;29.00;29.20
37052;DHT22;22964;52.272;13.356;2023-05-10T15:29:17;29.10;30.30
37052;DHT22;22964;52.272;13.356;2023-05-10T15:31:49;29.10;31.30
37052;DHT22;22964;52.272;13.356;2023-05-10T15:34:15;29.20;32.00
37052;DHT22;22964;52.272;13.356;2023-05-10T15:36:41;29.20;32.00
37052;DHT22;22964;52.272;13.356;2023-05-10T15:39:07;29.30;32.00
37052;DHT22;22964;52.272;13.356;2023-05-10T15:41:35;29.20;32.10
37052;DHT22;22964;52.272;13.356;2023-05-10T15:44:00;29.20;32.00
37052;DHT22;22964;52.272;13.356;2023-05-10T15:46:29;29.20;32.80
37052;DHT22;22964;52.272;13.356;2023-05-10T15:48:56;29.00;32.30
37052;DHT22;22964;52.272;13.356;2023-05-10T15:51:22;29.00;32.20
37052;DHT22;22964;52.272;13.356;2023-05-10T15:53:48;28.90;32.40
37052;DHT22;22964;52.272;13.356;2023-05-10T15:56:14;28.80;32.60
37052;DHT22;22964;52.272;13.356;2023-05-10T15:58:40;28.70;33.00